createdAt,value
2022-12-11T00:00:08.604Z,23.88
2022-12-11T00:02:37.015Z,30.30
2022-12-11T00:05:09.792Z,29.50
2022-12-11T00:07:40.032Z,24.23
2022-12-11T00:10:11.931Z,29.70
2022-12-11T00:12:41.210Z,27.50
2022-12-11T00:15:10.605Z,28.60
2022-12-11T00:17:40.209Z,26.77
2022-12-11T00:20:09.423Z,27.50
2022-12-11T00:22:57.481Z,29.33
2022-12-11T00:25:43.608Z,24.38
2022-12-11T00:28:15.067Z,25.58
2022-12-11T00:30:46.580Z,20.40
2022-12-11T00:33:17.914Z,23.02
2022-12-11T00:35:53.224Z,24.50
2022-12-11T00:38:24.236Z,26.42
2022-12-11T00:40:54.314Z,22.63
2022-12-11T00:45:50.521Z,22.55
2022-12-11T00:48:19.136Z,22.58
2022-12-11T00:50:48.342Z,24.05
2022-12-11T00:53:16.827Z,26.65
2022-12-11T00:55:46.194Z,20.45
2022-12-11T00:58:16.748Z,19.02
2022-12-11T01:00:45.976Z,25.02
2022-12-11T01:03:16.264Z,19.58
2022-12-11T01:05:53.316Z,26.52
2022-12-11T01:08:22.060Z,26.48
2022-12-11T01:10:49.664Z,21.10
2022-12-11T01:13:19.550Z,23.33
2022-12-11T01:15:48.074Z,20.27
2022-12-11T01:18:17.262Z,23.85
2022-12-11T01:20:47.970Z,20.30
2022-12-11T01:23:17.126Z,17.33
2022-12-11T01:26:03.330Z,21.50
2022-12-11T01:36:39.466Z,17.10
2022-12-11T01:39:18.641Z,20.67
2022-12-11T01:41:57.420Z,18.33
2022-12-11T01:45:11.048Z,16.55
2022-12-11T01:47:42.272Z,22.90
2022-12-11T01:50:12.068Z,15.75
2022-12-11T01:52:44.296Z,19.40
2022-12-11T01:55:13.351Z,21.50
2022-12-11T01:57:45.080Z,19.13
2022-12-11T02:00:14.811Z,20.83
2022-12-11T02:02:45.109Z,20.20
2022-12-11T02:05:13.993Z,25.02
2022-12-11T02:07:49.339Z,16.98
2022-12-11T02:10:26.232Z,18.65
2022-12-11T02:14:30.221Z,18.08
2022-12-11T02:17:15.601Z,19.63
2022-12-11T02:20:08.803Z,21.45
2022-12-11T02:22:57.629Z,16.73
2022-12-11T02:25:47.826Z,15.70
2022-12-11T02:28:25.252Z,15.05
2022-12-11T02:30:59.223Z,14.20
2022-12-11T02:33:34.265Z,13.48
2022-12-11T02:36:11.647Z,18.73
2022-12-11T02:38:50.832Z,16.45
2022-12-11T02:41:21.984Z,18.20
2022-12-11T02:43:52.903Z,17.30
2022-12-11T02:46:23.641Z,21.33
2022-12-11T02:48:54.955Z,21.33
2022-12-11T02:51:28.362Z,17.73
2022-12-11T02:54:03.205Z,18.77
2022-12-11T02:56:37.805Z,15.13
2022-12-11T02:59:15.900Z,15.88
2022-12-11T03:01:48.352Z,24.23
2022-12-11T03:04:19.920Z,17.25
2022-12-11T03:06:53.258Z,15.77
2022-12-11T03:09:26.510Z,16.15
2022-12-11T03:11:55.296Z,13.98
2022-12-11T03:14:29.545Z,20.35
2022-12-11T03:17:06.887Z,14.32
2022-12-11T03:19:40.211Z,14.95
2022-12-11T03:22:13.159Z,13.48
2022-12-11T03:24:45.809Z,15.82
2022-12-11T03:27:20.485Z,12.02
2022-12-11T03:29:57.915Z,18.00
2022-12-11T03:32:32.748Z,12.50
2022-12-11T03:35:08.221Z,16.95
2022-12-11T03:37:41.286Z,16.55
2022-12-11T03:40:13.553Z,18.70
2022-12-11T03:42:44.500Z,12.52
2022-12-11T03:45:15.523Z,13.13
2022-12-11T03:47:45.687Z,16.83
2022-12-11T03:50:17.139Z,12.40
2022-12-11T03:52:48.665Z,11.77
2022-12-11T03:55:19.278Z,16.85
2022-12-11T03:57:47.557Z,15.27
2022-12-11T04:00:22.305Z,12.55
2022-12-11T04:03:13.901Z,13.10
2022-12-11T04:05:47.923Z,17.02
2022-12-11T04:08:16.691Z,16.20
2022-12-11T04:10:44.994Z,16.80
2022-12-11T04:13:13.156Z,13.45
2022-12-11T04:15:42.024Z,19.17
2022-12-11T04:18:28.758Z,15.52
2022-12-11T04:21:15.492Z,17.13
2022-12-11T04:24:16.214Z,15.20
2022-12-11T04:26:45.891Z,14.52
2022-12-11T04:29:15.302Z,15.75
2022-12-11T04:31:47.551Z,16.63
2022-12-11T04:34:18.312Z,19.10
2022-12-11T04:36:46.580Z,15.30
2022-12-11T04:39:14.775Z,24.75
2022-12-11T04:41:42.847Z,16.08
2022-12-11T04:44:11.089Z,24.58
2022-12-11T04:46:39.224Z,14.73
2022-12-11T04:49:10.147Z,18.27
2022-12-11T04:51:38.265Z,19.88
2022-12-11T04:54:06.630Z,14.30
2022-12-11T04:56:34.713Z,13.45
2022-12-11T04:59:03.311Z,15.75
2022-12-11T05:01:31.577Z,20.20
2022-12-11T05:04:01.460Z,15.93
2022-12-11T05:06:31.331Z,10.93
2022-12-11T05:08:59.890Z,11.27
2022-12-11T05:11:28.216Z,12.05
2022-12-11T05:13:56.562Z,10.02
2022-12-11T05:16:24.831Z,9.63
2022-12-11T05:18:52.891Z,8.02
2022-12-11T05:21:21.085Z,10.32
2022-12-11T05:23:50.743Z,9.75
2022-12-11T05:26:21.451Z,8.95
2022-12-11T05:28:54.743Z,8.07
2022-12-11T05:31:24.670Z,8.95
2022-12-11T05:33:54.336Z,8.07
2022-12-11T05:36:25.305Z,8.05
2022-12-11T05:38:55.589Z,9.75
2022-12-11T05:41:25.996Z,8.02
2022-12-11T05:43:54.561Z,11.52
2022-12-11T05:46:24.455Z,7.35
2022-12-11T05:48:55.638Z,8.48
2022-12-11T05:51:24.144Z,8.73
2022-12-11T05:53:55.123Z,11.38
2022-12-11T05:56:26.336Z,7.60
2022-12-11T05:58:55.011Z,8.05
2022-12-11T06:01:27.674Z,8.40
2022-12-11T06:03:56.963Z,8.20
2022-12-11T06:06:26.145Z,11.52
2022-12-11T06:08:57.700Z,8.98
2022-12-11T06:11:29.142Z,6.03
2022-12-11T06:13:57.963Z,6.53
2022-12-11T06:16:27.092Z,7.75
2022-12-11T06:18:58.225Z,8.30
2022-12-11T06:21:28.858Z,6.05
2022-12-11T06:24:00.223Z,9.10
2022-12-11T06:26:29.643Z,8.30
2022-12-11T06:28:57.771Z,7.07
2022-12-11T06:31:25.929Z,8.48
2022-12-11T06:33:54.368Z,12.02
2022-12-11T06:36:24.551Z,9.60
2022-12-11T06:38:53.739Z,8.05
2022-12-11T06:41:23.272Z,7.97
2022-12-11T06:43:52.023Z,8.05
2022-12-11T06:46:21.752Z,9.90
2022-12-11T06:48:50.853Z,9.27
2022-12-11T06:51:21.439Z,10.88
2022-12-11T06:53:53.253Z,8.88
2022-12-11T06:56:23.834Z,8.75
2022-12-11T06:58:52.271Z,8.40
2022-12-11T07:01:22.637Z,8.40
2022-12-11T07:03:51.141Z,9.13
2022-12-11T07:06:19.597Z,8.75
2022-12-11T07:08:47.977Z,8.77
2022-12-11T07:11:18.857Z,10.23
2022-12-11T07:13:50.657Z,8.90
2022-12-11T07:16:20.069Z,8.95
2022-12-11T07:18:50.285Z,6.35
2022-12-11T07:23:46.787Z,5.88
2022-12-11T07:26:17.002Z,9.00
2022-12-11T07:28:45.544Z,8.65
2022-12-11T07:31:17.350Z,10.00
2022-12-11T07:33:46.040Z,8.90
2022-12-11T07:36:16.433Z,11.30
2022-12-11T07:38:45.165Z,7.75
2022-12-11T07:41:17.991Z,7.07
2022-12-11T07:43:46.383Z,7.88
2022-12-11T07:46:18.618Z,8.95
2022-12-11T07:48:48.712Z,6.90
2022-12-11T07:53:47.479Z,4.22
2022-12-11T07:56:16.557Z,6.88
2022-12-11T07:58:46.045Z,6.60
2022-12-11T08:01:19.241Z,5.60
2022-12-11T08:03:48.234Z,5.57
2022-12-11T08:06:19.082Z,4.97
2022-12-11T08:08:47.861Z,7.43
2022-12-11T08:11:18.180Z,5.28
2022-12-11T08:13:47.270Z,6.35
2022-12-11T08:16:18.308Z,3.87
2022-12-11T08:18:48.326Z,7.03
2022-12-11T08:23:46.197Z,5.13
2022-12-11T08:26:16.557Z,7.32
2022-12-11T08:28:47.911Z,6.78
2022-12-11T08:31:19.098Z,6.50
2022-12-11T08:33:48.307Z,7.57
2022-12-11T08:36:20.479Z,12.00
2022-12-11T08:38:48.793Z,7.13
2022-12-11T08:41:19.261Z,7.80
2022-12-11T08:43:48.290Z,8.13
2022-12-11T08:46:17.762Z,8.83
2022-12-11T08:48:46.112Z,11.90
2022-12-11T08:51:17.314Z,8.45
2022-12-11T08:53:47.015Z,8.60
2022-12-11T08:56:17.469Z,6.82
2022-12-11T08:58:46.303Z,9.02
2022-12-11T09:01:16.360Z,7.53
2022-12-11T09:06:18.056Z,8.85
2022-12-11T09:08:52.253Z,6.25
2022-12-11T09:11:22.775Z,7.38
2022-12-11T09:13:51.360Z,6.95
2022-12-11T09:16:22.472Z,7.82
2022-12-11T09:18:54.177Z,11.40
2022-12-11T09:21:24.256Z,11.23
2022-12-11T09:26:23.129Z,6.53
2022-12-11T09:28:53.510Z,8.80
2022-12-11T09:31:25.605Z,8.95
2022-12-11T09:33:56.915Z,8.05
2022-12-11T09:36:26.519Z,6.82
2022-12-11T09:38:54.917Z,8.90
2022-12-11T09:41:38.712Z,11.23
2022-12-11T09:44:18.399Z,6.55
2022-12-11T09:46:51.580Z,6.22
2022-12-11T09:49:35.509Z,6.57
2022-12-11T09:52:12.524Z,9.93
2022-12-11T09:54:45.155Z,9.02
2022-12-11T09:57:36.234Z,7.65
2022-12-11T10:00:15.838Z,6.70
2022-12-11T10:03:03.981Z,6.50
2022-12-11T10:05:45.544Z,7.75
2022-12-11T10:08:23.107Z,10.05
2022-12-11T10:11:02.165Z,6.03
2022-12-11T10:13:45.480Z,7.25
2022-12-11T10:16:22.309Z,9.90
2022-12-11T10:18:52.539Z,8.00
2022-12-11T10:21:22.555Z,7.22
2022-12-11T10:23:56.264Z,7.97
2022-12-11T10:26:25.771Z,6.53
2022-12-11T10:28:54.396Z,6.20
2022-12-11T10:31:33.661Z,8.63
2022-12-11T10:34:04.861Z,7.00
2022-12-11T10:36:38.906Z,6.43
2022-12-11T10:39:15.752Z,7.55
2022-12-11T10:41:46.105Z,6.30
2022-12-11T10:44:17.638Z,7.15
2022-12-11T10:46:46.332Z,6.53
2022-12-11T10:49:26.923Z,7.93
2022-12-11T10:52:01.475Z,9.55
2022-12-11T10:54:33.891Z,5.63
2022-12-11T10:57:04.246Z,6.43
2022-12-11T10:59:38.669Z,6.18
2022-12-11T11:02:17.288Z,8.07
2022-12-11T11:04:46.966Z,8.60
2022-12-11T11:07:26.250Z,8.75
2022-12-11T11:57:35.115Z,5.72
2022-12-11T12:00:10.879Z,5.88
2022-12-11T12:02:39.221Z,5.57
2022-12-11T12:05:07.998Z,7.38
2022-12-11T12:07:46.353Z,5.28
2022-12-11T12:10:23.057Z,5.45
2022-12-11T12:12:59.449Z,5.28
2022-12-11T12:15:42.705Z,8.55
2022-12-11T12:18:22.577Z,5.20
2022-12-11T12:21:00.271Z,7.22
2022-12-11T12:23:46.256Z,5.78
2022-12-11T12:26:25.609Z,3.50
2022-12-11T12:29:40.583Z,3.20
2022-12-11T12:32:18.057Z,6.43
2022-12-11T12:35:00.565Z,5.53
2022-12-11T12:37:40.104Z,5.05
2022-12-11T12:40:20.696Z,1.85
2022-12-11T12:43:02.008Z,3.55
2022-12-11T12:45:39.828Z,5.80
2022-12-11T12:48:11.061Z,3.78
2022-12-11T12:50:43.571Z,5.50
2022-12-11T12:53:19.535Z,4.75
2022-12-11T12:55:49.678Z,3.22
2022-12-11T13:01:09.611Z,6.53
2022-12-11T13:03:50.156Z,8.52
2022-12-11T13:06:30.474Z,4.75
2022-12-11T13:08:59.850Z,5.05
2022-12-11T13:11:35.605Z,5.73
2022-12-11T13:14:06.421Z,3.03
2022-12-11T13:16:40.367Z,4.60
2022-12-11T13:19:19.600Z,5.63
2022-12-11T13:21:58.246Z,4.87
2022-12-11T13:24:31.905Z,6.72
2022-12-11T13:27:13.546Z,8.73
2022-12-11T13:29:43.325Z,5.70
2022-12-11T13:32:25.434Z,5.72
2022-12-11T13:34:56.958Z,7.22
2022-12-11T13:37:32.059Z,9.15
2022-12-11T13:40:17.664Z,12.95
2022-12-11T13:42:50.705Z,9.27
2022-12-11T13:45:28.346Z,7.03
2022-12-11T13:47:59.898Z,7.68
2022-12-11T13:50:34.431Z,4.75
2022-12-11T13:53:14.788Z,5.45
2022-12-11T13:55:44.742Z,7.32
2022-12-11T13:59:12.864Z,9.88
2022-12-11T14:01:43.569Z,6.53
2022-12-11T14:04:34.351Z,4.90
2022-12-11T14:07:41.282Z,4.43
2022-12-11T14:10:29.319Z,10.55
2022-12-11T14:13:06.562Z,6.10
2022-12-11T14:16:56.089Z,6.75
2022-12-11T14:19:22.977Z,6.82
2022-12-11T14:22:09.067Z,5.15
2022-12-11T14:25:32.142Z,8.63
2022-12-11T14:30:59.384Z,10.10
2022-12-11T14:32:20.504Z,23.85
2022-12-11T14:34:51.827Z,16.45
2022-12-11T14:37:22.524Z,17.67
2022-12-11T14:39:58.339Z,17.83
2022-12-11T14:42:30.980Z,10.60
2022-12-11T14:45:05.144Z,8.98
2022-12-11T14:47:40.251Z,7.70
2022-12-11T14:50:18.142Z,9.38
2022-12-11T14:52:49.254Z,7.50
2022-12-11T14:55:22.260Z,6.93
2022-12-11T14:57:56.301Z,4.80
2022-12-11T15:00:27.900Z,6.97
2022-12-11T15:03:00.760Z,9.45
2022-12-11T15:05:37.102Z,6.97
2022-12-11T15:08:25.008Z,6.53
2022-12-11T15:11:12.469Z,9.07
2022-12-11T15:13:54.166Z,9.88
2022-12-11T15:16:26.863Z,8.90
2022-12-11T15:18:57.168Z,14.32
2022-12-11T15:21:32.069Z,8.77
2022-12-11T15:24:02.476Z,8.73
2022-12-11T15:26:37.181Z,7.93
2022-12-11T15:29:07.406Z,9.77
2022-12-11T15:31:36.787Z,13.07
2022-12-11T15:34:05.250Z,11.77
2022-12-11T15:36:37.060Z,11.25
2022-12-11T15:39:08.781Z,8.88
2022-12-11T15:41:37.085Z,11.55
2022-12-11T15:44:05.864Z,10.20
2022-12-11T15:46:37.681Z,10.75
2022-12-11T15:49:12.868Z,9.65
2022-12-11T15:51:43.427Z,12.35
2022-12-11T15:54:11.890Z,15.75
2022-12-11T15:56:40.780Z,16.30
2022-12-11T15:59:09.307Z,15.02
2022-12-11T16:01:38.758Z,23.50
2022-12-11T16:04:07.238Z,18.02
2022-12-11T16:06:35.563Z,16.75
2022-12-11T16:09:05.973Z,13.38
2022-12-11T16:11:34.645Z,12.40
2022-12-11T16:14:04.650Z,17.80
2022-12-11T16:16:33.627Z,22.70
2022-12-11T16:19:02.082Z,24.60
2022-12-11T16:21:30.772Z,30.30
2022-12-11T16:23:59.038Z,28.67
2022-12-11T16:26:30.192Z,31.50
2022-12-11T16:29:01.912Z,30.25
2022-12-11T16:31:30.215Z,29.38
2022-12-11T16:34:10.126Z,29.83
2022-12-11T16:36:38.829Z,20.27
2022-12-11T16:39:12.927Z,25.58
2022-12-11T16:41:45.391Z,21.08
2022-12-11T16:44:15.848Z,24.67
2022-12-11T16:46:45.784Z,25.38
2022-12-11T16:49:15.164Z,31.38
2022-12-11T16:51:44.347Z,25.58
2022-12-11T16:54:16.350Z,23.57
2022-12-11T16:56:46.536Z,30.08
2022-12-11T16:59:17.447Z,21.15
2022-12-11T17:01:53.976Z,24.42
2022-12-11T17:04:32.859Z,23.83
2022-12-11T17:07:05.199Z,28.17
2022-12-11T17:09:34.146Z,22.67
2022-12-11T17:12:04.974Z,20.08
2022-12-11T17:14:33.938Z,20.98
2022-12-11T17:17:02.332Z,33.22
2022-12-11T17:19:31.158Z,28.25
2022-12-11T17:22:07.077Z,30.02
2022-12-11T17:24:36.748Z,30.38
2022-12-11T17:27:07.992Z,38.85
2022-12-11T17:29:43.032Z,36.45
2022-12-11T17:32:11.764Z,34.00
2022-12-11T17:34:40.195Z,37.40
2022-12-11T17:37:11.795Z,37.17
2022-12-11T17:39:40.069Z,33.05
2022-12-11T17:42:10.429Z,32.10
2022-12-11T17:44:57.380Z,27.02
2022-12-11T17:47:25.693Z,26.80
2022-12-11T17:49:53.900Z,27.95
2022-12-11T17:52:22.342Z,29.58
2022-12-11T17:54:50.587Z,20.52
2022-12-11T17:57:25.310Z,23.75
2022-12-11T18:00:00.374Z,25.67
2022-12-11T18:02:29.304Z,31.48
2022-12-11T18:04:58.138Z,30.67
2022-12-11T18:07:31.623Z,25.80
2022-12-11T18:10:15.565Z,22.85
2022-12-11T18:12:50.090Z,30.50
2022-12-11T18:15:20.023Z,25.50
2022-12-11T18:17:48.688Z,24.23
2022-12-11T18:20:17.157Z,25.33
2022-12-11T18:22:48.501Z,28.80
2022-12-11T18:25:17.387Z,25.42
2022-12-11T18:27:48.243Z,31.63
2022-12-11T18:30:16.984Z,27.02
2022-12-11T18:32:46.744Z,36.55
2022-12-11T18:35:44.302Z,34.47
2022-12-11T18:38:13.118Z,25.25
2022-12-11T18:40:42.360Z,25.02
2022-12-11T18:43:20.577Z,29.98
2022-12-11T18:45:49.026Z,25.75
2022-12-11T18:48:17.465Z,37.00
2022-12-11T18:50:51.914Z,31.25
2022-12-11T18:53:22.648Z,26.60
2022-12-11T18:55:53.482Z,28.50
2022-12-11T18:58:27.081Z,35.30
2022-12-11T19:00:58.159Z,40.85
2022-12-11T19:03:29.896Z,33.55
2022-12-11T19:06:15.863Z,33.60
2022-12-11T19:08:47.834Z,36.67
2022-12-11T19:11:21.918Z,32.28
2022-12-11T19:14:06.089Z,39.28
2022-12-11T19:16:37.737Z,36.03
2022-12-11T19:19:13.688Z,41.67
2022-12-11T19:21:44.395Z,52.28
2022-12-11T19:24:15.569Z,53.35
2022-12-11T19:26:46.966Z,65.18
2022-12-11T19:29:21.902Z,35.47
2022-12-11T19:31:50.716Z,44.17
2022-12-11T19:34:19.157Z,51.58
2022-12-11T19:36:49.319Z,48.85
2022-12-11T19:39:17.352Z,45.60
2022-12-11T19:41:45.473Z,36.15
2022-12-11T19:44:14.090Z,36.70
2022-12-11T19:46:43.565Z,49.60
2022-12-11T19:49:13.020Z,36.88
2022-12-11T19:51:46.166Z,42.40
2022-12-11T19:54:17.231Z,41.05
2022-12-11T19:56:45.831Z,42.17
2022-12-11T19:59:16.954Z,45.72
2022-12-11T20:01:48.199Z,36.20
2022-12-11T20:04:18.314Z,38.72
2022-12-11T20:09:31.305Z,44.40
2022-12-11T20:12:03.707Z,41.42
2022-12-11T20:14:32.551Z,48.47
2022-12-11T20:17:11.836Z,50.25
2022-12-11T20:19:55.500Z,42.08
2022-12-11T20:22:27.604Z,47.60
2022-12-11T20:24:56.176Z,46.20
2022-12-11T20:27:26.403Z,52.67
2022-12-11T20:29:54.745Z,45.92
2022-12-11T20:32:24.443Z,52.65
2022-12-11T20:34:56.157Z,43.40
2022-12-11T20:37:24.378Z,44.83
2022-12-11T20:39:52.706Z,36.67
2022-12-11T20:42:21.015Z,43.47
2022-12-11T20:44:49.756Z,46.63
2022-12-11T20:47:19.880Z,34.20
2022-12-11T20:52:18.218Z,46.15
2022-12-11T20:54:46.959Z,43.45
2022-12-11T20:57:16.477Z,40.35
2022-12-11T20:59:49.227Z,37.15
2022-12-11T21:02:17.586Z,48.08
2022-12-11T21:04:46.528Z,48.85
2022-12-11T21:07:16.268Z,40.50
2022-12-11T21:09:44.364Z,49.13
2022-12-11T21:12:12.458Z,36.95
2022-12-11T21:14:40.514Z,33.72
2022-12-11T21:17:08.701Z,39.58
2022-12-11T21:19:37.270Z,46.63
2022-12-11T21:22:05.682Z,40.42
2022-12-11T21:24:38.295Z,39.33
2022-12-11T21:27:06.548Z,43.88
2022-12-11T21:29:34.661Z,44.83
2022-12-11T21:32:03.165Z,44.10
2022-12-11T21:34:32.983Z,49.58
2022-12-11T21:37:01.082Z,50.33
2022-12-11T21:39:31.611Z,46.95
2022-12-11T21:42:03.273Z,48.60
2022-12-11T21:47:20.697Z,49.90
2022-12-11T21:49:49.323Z,54.20
2022-12-11T21:52:20.608Z,52.85
2022-12-11T21:54:49.345Z,48.40
2022-12-11T21:57:26.112Z,42.60
2022-12-11T21:59:54.757Z,50.22
2022-12-11T22:02:23.030Z,53.80
2022-12-11T22:04:51.259Z,51.05
2022-12-11T22:07:19.341Z,37.00
2022-12-11T22:09:49.126Z,36.92
2022-12-11T22:12:24.267Z,34.78
2022-12-11T22:14:52.685Z,42.30
2022-12-11T22:17:20.766Z,43.60
2022-12-11T22:19:49.102Z,51.17
2022-12-11T22:22:17.277Z,48.67
2022-12-11T22:24:45.282Z,56.42
2022-12-11T22:27:13.399Z,45.15
2022-12-11T22:29:42.815Z,47.53
2022-12-11T22:32:10.844Z,39.80
2022-12-11T22:34:39.706Z,42.88
2022-12-11T22:37:07.842Z,40.53
2022-12-11T22:39:35.916Z,35.28
2022-12-11T22:42:03.999Z,33.55
2022-12-11T22:44:32.081Z,32.40
2022-12-11T22:47:01.580Z,38.25
2022-12-11T22:49:29.638Z,36.83
2022-12-11T22:51:58.631Z,42.15
2022-12-11T22:54:26.774Z,37.70
2022-12-11T22:56:54.941Z,46.33
2022-12-11T22:59:24.006Z,38.85
2022-12-11T23:01:52.133Z,38.17
2022-12-11T23:04:23.395Z,37.13
2022-12-11T23:06:52.505Z,47.85
2022-12-11T23:09:20.659Z,40.80
2022-12-11T23:11:48.668Z,39.55
2022-12-11T23:14:18.675Z,38.75
2022-12-11T23:19:16.299Z,39.75
2022-12-11T23:21:50.571Z,44.35
2022-12-11T23:24:18.774Z,53.10
2022-12-11T23:26:48.238Z,45.92
2022-12-11T23:29:16.456Z,52.65
2022-12-11T23:31:44.589Z,45.70
2022-12-11T23:34:12.917Z,42.75
2022-12-11T23:36:40.937Z,39.55
2022-12-11T23:39:10.761Z,40.53
2022-12-11T23:41:38.839Z,31.67
2022-12-11T23:44:06.891Z,44.75
2022-12-11T23:46:36.369Z,43.72
2022-12-11T23:49:05.308Z,43.70
2022-12-11T23:51:33.578Z,37.13
2022-12-11T23:54:01.785Z,42.17
2022-12-11T23:56:31.366Z,46.35
2022-12-11T23:59:02.339Z,45.97
